sensor_id;sensor_type;location;lat;lon;timestamp;pressure;altitude;pressure_sealevel;temperature;humidity
29371;BME280;16357;52.188;7.838;2022-10-31T00:00:27;101339.44;;;15.78;63.93
29371;BME280;16357;52.188;7.838;2022-10-31T00:02:54;101342.31;;;15.77;64.08
29371;BME280;16357;52.188;7.838;2022-10-31T00:05:20;101333.34;;;15.76;64.13
29371;BME280;16357;52.188;7.838;2022-10-31T00:07:46;101333.34;;;15.76;63.93
29371;BME280;16357;52.188;7.838;2022-10-31T00:10:13;101336.06;;;15.76;64.20
29371;BME280;16357;52.188;7.838;2022-10-31T00:12:39;101337.94;;;15.76;64.27
29371;BME280;16357;52.188;7.838;2022-10-31T00:15:06;101337.09;;;15.75;64.34
29371;BME280;16357;52.188;7.838;2022-10-31T00:17:34;101328.97;;;15.75;64.18
29371;BME280;16357;52.188;7.838;2022-10-31T00:20:01;101330.34;;;15.71;64.52
29371;BME280;16357;52.188;7.838;2022-10-31T00:22:27;101340.31;;;15.71;64.49
29371;BME280;16357;52.188;7.838;2022-10-31T00:24:54;101342.50;;;15.67;64.33
29371;BME280;16357;52.188;7.838;2022-10-31T00:27:20;101348.91;;;15.66;64.27
29371;BME280;16357;52.188;7.838;2022-10-31T00:29:47;101348.28;;;15.64;64.13
29371;BME280;16357;52.188;7.838;2022-10-31T00:32:13;101348.59;;;15.61;64.05
29371;BME280;16357;52.188;7.838;2022-10-31T00:34:39;101343.38;;;15.59;63.86
29371;BME280;16357;52.188;7.838;2022-10-31T00:37:06;101348.13;;;15.57;64.16
29371;BME280;16357;52.188;7.838;2022-10-31T00:39:32;101346.59;;;15.55;64.41
29371;BME280;16357;52.188;7.838;2022-10-31T00:41:59;101347.78;;;15.52;64.18
29371;BME280;16357;52.188;7.838;2022-10-31T00:44:25;101352.72;;;15.49;64.39
29371;BME280;16357;52.188;7.838;2022-10-31T00:46:52;101352.03;;;15.47;64.08
29371;BME280;16357;52.188;7.838;2022-10-31T00:49:18;101345.94;;;15.45;64.32
29371;BME280;16357;52.188;7.838;2022-10-31T00:51:44;101348.84;;;15.43;64.10
29371;BME280;16357;52.188;7.838;2022-10-31T00:54:11;101344.63;;;15.41;64.42
29371;BME280;16357;52.188;7.838;2022-10-31T00:56:37;101350.34;;;15.37;64.26
29371;BME280;16357;52.188;7.838;2022-10-31T00:59:03;101347.00;;;15.35;64.02
29371;BME280;16357;52.188;7.838;2022-10-31T01:01:30;101351.06;;;15.31;63.84
29371;BME280;16357;52.188;7.838;2022-10-31T01:03:56;101353.09;;;15.29;63.55
29371;BME280;16357;52.188;7.838;2022-10-31T01:06:23;101358.00;;;15.26;63.79
29371;BME280;16357;52.188;7.838;2022-10-31T01:08:49;101361.06;;;15.23;63.97
29371;BME280;16357;52.188;7.838;2022-10-31T01:11:20;101358.50;;;15.21;63.80
29371;BME280;16357;52.188;7.838;2022-10-31T01:13:50;101365.09;;;15.19;64.26
29371;BME280;16357;52.188;7.838;2022-10-31T01:16:19;101363.59;;;15.16;64.10
29371;BME280;16357;52.188;7.838;2022-10-31T01:18:45;101367.47;;;15.13;64.50
29371;BME280;16357;52.188;7.838;2022-10-31T01:21:21;101361.22;;;15.13;64.32
29371;BME280;16357;52.188;7.838;2022-10-31T01:23:48;101358.03;;;15.09;64.87
29371;BME280;16357;52.188;7.838;2022-10-31T01:26:25;101361.56;;;15.10;64.56
29371;BME280;16357;52.188;7.838;2022-10-31T01:28:59;101370.88;;;15.07;65.06
29371;BME280;16357;52.188;7.838;2022-10-31T01:31:28;101366.31;;;15.08;64.74
29371;BME280;16357;52.188;7.838;2022-10-31T01:33:55;101375.44;;;15.07;65.05
29371;BME280;16357;52.188;7.838;2022-10-31T01:36:27;101370.88;;;15.07;65.17
29371;BME280;16357;52.188;7.838;2022-10-31T01:38:57;101360.91;;;15.08;64.82
29371;BME280;16357;52.188;7.838;2022-10-31T01:41:29;101363.59;;;15.08;64.61
29371;BME280;16357;52.188;7.838;2022-10-31T01:44:02;101361.72;;;15.08;64.74
29371;BME280;16357;52.188;7.838;2022-10-31T01:46:35;101367.31;;;15.07;64.57
29371;BME280;16357;52.188;7.838;2022-10-31T01:49:10;101362.09;;;15.05;64.50
29371;BME280;16357;52.188;7.838;2022-10-31T01:51:42;101368.66;;;15.03;64.36
29371;BME280;16357;52.188;7.838;2022-10-31T01:54:14;101362.59;;;15.01;64.32
29371;BME280;16357;52.188;7.838;2022-10-31T01:56:46;101362.78;;;14.99;64.67
29371;BME280;16357;52.188;7.838;2022-10-31T01:59:17;101359.56;;;14.96;64.70
29371;BME280;16357;52.188;7.838;2022-10-31T02:01:46;101354.69;;;14.91;65.21
29371;BME280;16357;52.188;7.838;2022-10-31T02:04:14;101363.13;;;14.88;65.22
29371;BME280;16357;52.188;7.838;2022-10-31T02:06:47;101363.28;;;14.86;64.94
29371;BME280;16357;52.188;7.838;2022-10-31T02:09:16;101375.41;;;14.82;65.10
29371;BME280;16357;52.188;7.838;2022-10-31T02:11:44;101377.63;;;14.79;65.21
29371;BME280;16357;52.188;7.838;2022-10-31T02:14:10;101368.00;;;14.76;65.36
29371;BME280;16357;52.188;7.838;2022-10-31T02:16:37;101373.59;;;14.75;65.26
29371;BME280;16357;52.188;7.838;2022-10-31T02:19:07;101368.34;;;14.73;64.95
29371;BME280;16357;52.188;7.838;2022-10-31T02:21:47;101370.38;;;14.71;65.07
29371;BME280;16357;52.188;7.838;2022-10-31T02:27:06;101361.91;;;14.66;65.09
29371;BME280;16357;52.188;7.838;2022-10-31T02:30:03;101361.09;;;14.65;65.35
29371;BME280;16357;52.188;7.838;2022-10-31T02:35:43;101364.81;;;14.64;64.92
29371;BME280;16357;52.188;7.838;2022-10-31T02:39:18;101364.28;;;14.61;64.66
29371;BME280;16357;52.188;7.838;2022-10-31T02:41:23;101375.06;;;14.61;64.95
29371;BME280;16357;52.188;7.838;2022-10-31T02:46:35;101377.44;;;14.56;64.82
29371;BME280;16357;52.188;7.838;2022-10-31T02:49:11;101379.47;;;14.54;64.69
29371;BME280;16357;52.188;7.838;2022-10-31T02:51:43;101380.78;;;14.49;64.97
29371;BME280;16357;52.188;7.838;2022-10-31T02:54:22;101381.94;;;14.47;65.01
29371;BME280;16357;52.188;7.838;2022-10-31T02:56:51;101385.00;;;14.44;65.18
29371;BME280;16357;52.188;7.838;2022-10-31T02:59:19;101389.19;;;14.38;65.14
29371;BME280;16357;52.188;7.838;2022-10-31T03:05:02;101390.53;;;14.34;65.04
29371;BME280;16357;52.188;7.838;2022-10-31T03:07:43;101388.16;;;14.31;65.34
29371;BME280;16357;52.188;7.838;2022-10-31T03:10:19;101401.16;;;14.27;65.02
29371;BME280;16357;52.188;7.838;2022-10-31T03:13:20;101397.91;;;14.24;65.15
29371;BME280;16357;52.188;7.838;2022-10-31T03:18:55;101410.41;;;14.17;65.02
29371;BME280;16357;52.188;7.838;2022-10-31T03:21:40;101398.22;;;14.13;65.08
29371;BME280;16357;52.188;7.838;2022-10-31T03:24:10;101397.88;;;14.08;65.31
29371;BME280;16357;52.188;7.838;2022-10-31T03:26:40;101398.22;;;14.04;65.63
29371;BME280;16357;52.188;7.838;2022-10-31T03:29:09;101392.44;;;13.99;65.79
29371;BME280;16357;52.188;7.838;2022-10-31T03:31:40;101392.78;;;13.96;65.81
29371;BME280;16357;52.188;7.838;2022-10-31T03:34:10;101388.69;;;13.92;66.26
29371;BME280;16357;52.188;7.838;2022-10-31T03:36:39;101382.66;;;13.90;66.31
29371;BME280;16357;52.188;7.838;2022-10-31T03:39:13;101389.03;;;13.89;66.51
29371;BME280;16357;52.188;7.838;2022-10-31T03:41:44;101382.94;;;13.87;66.75
29371;BME280;16357;52.188;7.838;2022-10-31T03:44:16;101379.59;;;13.85;66.78
29371;BME280;16357;52.188;7.838;2022-10-31T03:46:44;101375.19;;;13.84;66.92
29371;BME280;16357;52.188;7.838;2022-10-31T03:49:11;101382.44;;;13.83;67.02
29371;BME280;16357;52.188;7.838;2022-10-31T03:52:13;101390.69;;;13.82;67.07
29371;BME280;16357;52.188;7.838;2022-10-31T03:54:42;101387.31;;;13.80;67.17
29371;BME280;16357;52.188;7.838;2022-10-31T03:57:18;101393.56;;;13.80;67.26
29371;BME280;16357;52.188;7.838;2022-10-31T03:59:51;101384.63;;;13.80;67.32
29371;BME280;16357;52.188;7.838;2022-10-31T04:02:23;101381.94;;;13.80;67.73
29371;BME280;16357;52.188;7.838;2022-10-31T04:04:52;101396.41;;;13.79;68.22
29371;BME280;16357;52.188;7.838;2022-10-31T04:07:20;101390.03;;;13.80;67.32
29371;BME280;16357;52.188;7.838;2022-10-31T04:09:49;101390.03;;;13.80;67.57
29371;BME280;16357;52.188;7.838;2022-10-31T04:12:17;101384.78;;;13.78;67.63
29371;BME280;16357;52.188;7.838;2022-10-31T04:14:46;101382.09;;;13.78;67.21
29371;BME280;16357;52.188;7.838;2022-10-31T04:17:16;101392.03;;;13.78;66.65
29371;BME280;16357;52.188;7.838;2022-10-31T04:19:44;101398.59;;;13.75;66.73
29371;BME280;16357;52.188;7.838;2022-10-31T04:22:10;101399.56;;;13.74;66.53
29371;BME280;16357;52.188;7.838;2022-10-31T04:24:38;101402.44;;;13.73;66.36
29371;BME280;16357;52.188;7.838;2022-10-31T04:27:06;101404.47;;;13.71;66.33
29371;BME280;16357;52.188;7.838;2022-10-31T04:29:32;101394.84;;;13.68;66.45
29371;BME280;16357;52.188;7.838;2022-10-31T04:31:59;101398.69;;;13.66;66.31
29371;BME280;16357;52.188;7.838;2022-10-31T04:34:25;101390.94;;;13.63;66.31
29371;BME280;16357;52.188;7.838;2022-10-31T04:36:51;101391.25;;;13.59;66.58
29371;BME280;16357;52.188;7.838;2022-10-31T04:39:18;101396.97;;;13.56;66.54
29371;BME280;16357;52.188;7.838;2022-10-31T04:41:52;101396.28;;;13.54;66.92
29371;BME280;16357;52.188;7.838;2022-10-31T04:44:18;101393.72;;;13.53;67.20
29371;BME280;16357;52.188;7.838;2022-10-31T04:46:44;101386.81;;;13.50;67.11
29371;BME280;16357;52.188;7.838;2022-10-31T04:49:11;101389.69;;;13.49;67.45
29371;BME280;16357;52.188;7.838;2022-10-31T04:51:37;101391.69;;;13.47;67.33
29371;BME280;16357;52.188;7.838;2022-10-31T04:54:04;101397.22;;;13.45;67.74
29371;BME280;16357;52.188;7.838;2022-10-31T04:56:30;101396.56;;;13.43;67.59
29371;BME280;16357;52.188;7.838;2022-10-31T04:58:57;101394.84;;;13.42;67.58
29371;BME280;16357;52.188;7.838;2022-10-31T05:01:23;101401.25;;;13.41;67.40
29371;BME280;16357;52.188;7.838;2022-10-31T05:03:49;101395.19;;;13.39;67.24
29371;BME280;16357;52.188;7.838;2022-10-31T05:06:16;101386.41;;;13.37;67.40
29371;BME280;16357;52.188;7.838;2022-10-31T05:08:42;101390.09;;;13.36;67.14
29371;BME280;16357;52.188;7.838;2022-10-31T05:11:09;101382.34;;;13.33;66.87
29371;BME280;16357;52.188;7.838;2022-10-31T05:13:35;101381.66;;;13.31;67.16
29371;BME280;16357;52.188;7.838;2022-10-31T05:16:02;101378.97;;;13.31;67.78
29371;BME280;16357;52.188;7.838;2022-10-31T05:18:29;101375.56;;;13.29;67.63
29371;BME280;16357;52.188;7.838;2022-10-31T05:20:55;101377.56;;;13.27;67.76
29371;BME280;16357;52.188;7.838;2022-10-31T05:23:22;101374.88;;;13.27;67.79
29371;BME280;16357;52.188;7.838;2022-10-31T05:25:48;101368.78;;;13.25;67.32
29371;BME280;16357;52.188;7.838;2022-10-31T05:28:15;101368.94;;;13.23;67.16
29371;BME280;16357;52.188;7.838;2022-10-31T05:30:41;101369.94;;;13.22;67.11
29371;BME280;16357;52.188;7.838;2022-10-31T05:33:07;101372.78;;;13.21;67.25
29371;BME280;16357;52.188;7.838;2022-10-31T05:35:34;101375.81;;;13.17;67.14
29371;BME280;16357;52.188;7.838;2022-10-31T05:38:00;101377.81;;;13.15;67.32
29371;BME280;16357;52.188;7.838;2022-10-31T05:40:27;101376.13;;;13.14;67.04
29371;BME280;16357;52.188;7.838;2022-10-31T05:42:55;101372.75;;;13.12;67.17
29371;BME280;16357;52.188;7.838;2022-10-31T05:45:22;101375.56;;;13.11;67.88
29371;BME280;16357;52.188;7.838;2022-10-31T05:47:59;101367.34;;;13.12;67.44
29371;BME280;16357;52.188;7.838;2022-10-31T05:50:29;101370.03;;;13.12;67.57
29371;BME280;16357;52.188;7.838;2022-10-31T05:52:58;101364.97;;;13.09;67.19
29371;BME280;16357;52.188;7.838;2022-10-31T05:55:25;101366.66;;;13.10;67.33
29371;BME280;16357;52.188;7.838;2022-10-31T05:57:53;101369.34;;;13.10;67.19
29371;BME280;16357;52.188;7.838;2022-10-31T06:00:20;101370.38;;;13.09;67.11
29371;BME280;16357;52.188;7.838;2022-10-31T06:02:47;101369.53;;;13.09;66.88
29371;BME280;16357;52.188;7.838;2022-10-31T06:05:14;101371.34;;;13.08;66.64
29371;BME280;16357;52.188;7.838;2022-10-31T06:07:41;101369.66;;;13.07;66.58
29371;BME280;16357;52.188;7.838;2022-10-31T06:10:08;101372.50;;;13.06;66.57
29371;BME280;16357;52.188;7.838;2022-10-31T06:12:35;101378.22;;;13.03;66.61
29371;BME280;16357;52.188;7.838;2022-10-31T06:15:08;101377.38;;;13.02;66.50
29371;BME280;16357;52.188;7.838;2022-10-31T06:17:35;101373.16;;;13.00;66.84
29371;BME280;16357;52.188;7.838;2022-10-31T06:20:02;101377.84;;;12.98;66.90
29371;BME280;16357;52.188;7.838;2022-10-31T06:22:29;101384.25;;;12.96;66.92
29371;BME280;16357;52.188;7.838;2022-10-31T06:24:56;101384.38;;;12.95;67.15
29371;BME280;16357;52.188;7.838;2022-10-31T06:27:23;101387.06;;;12.95;66.74
29371;BME280;16357;52.188;7.838;2022-10-31T06:29:50;101383.72;;;12.93;67.24
29371;BME280;16357;52.188;7.838;2022-10-31T06:32:16;101389.94;;;12.93;67.66
29371;BME280;16357;52.188;7.838;2022-10-31T06:34:43;101389.09;;;12.93;67.89
29371;BME280;16357;52.188;7.838;2022-10-31T06:37:11;101394.47;;;12.93;67.43
29371;BME280;16357;52.188;7.838;2022-10-31T06:39:38;101386.41;;;12.93;67.56
29371;BME280;16357;52.188;7.838;2022-10-31T06:42:04;101383.72;;;12.93;67.27
29371;BME280;16357;52.188;7.838;2022-10-31T06:44:31;101382.00;;;12.92;67.26
29371;BME280;16357;52.188;7.838;2022-10-31T06:46:57;101392.78;;;12.92;67.18
29371;BME280;16357;52.188;7.838;2022-10-31T06:49:23;101384.88;;;12.90;67.49
29371;BME280;16357;52.188;7.838;2022-10-31T06:51:50;101385.72;;;12.91;67.45
29371;BME280;16357;52.188;7.838;2022-10-31T06:54:17;101385.72;;;12.91;67.63
29371;BME280;16357;52.188;7.838;2022-10-31T06:56:46;101379.31;;;12.92;67.38
29371;BME280;16357;52.188;7.838;2022-10-31T06:59:14;101385.72;;;12.91;67.69
29371;BME280;16357;52.188;7.838;2022-10-31T07:01:40;101386.56;;;12.91;67.75
29371;BME280;16357;52.188;7.838;2022-10-31T07:04:11;101393.47;;;12.94;67.65
29371;BME280;16357;52.188;7.838;2022-10-31T07:06:38;101401.22;;;12.97;67.83
29371;BME280;16357;52.188;7.838;2022-10-31T07:09:04;101402.78;;;13.00;68.08
29371;BME280;16357;52.188;7.838;2022-10-31T07:11:31;101398.09;;;13.02;68.23
29371;BME280;16357;52.188;7.838;2022-10-31T07:13:57;101404.00;;;13.05;68.34
29371;BME280;16357;52.188;7.838;2022-10-31T07:16:24;101407.75;;;13.12;68.73
29371;BME280;16357;52.188;7.838;2022-10-31T07:18:50;101413.53;;;13.17;68.32
29371;BME280;16357;52.188;7.838;2022-10-31T07:21:17;101417.44;;;13.23;68.39
29371;BME280;16357;52.188;7.838;2022-10-31T07:23:43;101408.09;;;13.27;68.58
29371;BME280;16357;52.188;7.838;2022-10-31T07:26:10;101413.66;;;13.34;68.67
29371;BME280;16357;52.188;7.838;2022-10-31T07:28:36;101415.91;;;13.38;68.76
29371;BME280;16357;52.188;7.838;2022-10-31T07:31:03;101419.66;;;13.46;68.85
29371;BME280;16357;52.188;7.838;2022-10-31T07:33:29;101414.47;;;13.52;68.81
29371;BME280;16357;52.188;7.838;2022-10-31T07:35:55;101416.50;;;13.58;68.90
29371;BME280;16357;52.188;7.838;2022-10-31T07:38:22;101418.41;;;13.66;69.16
29371;BME280;16357;52.188;7.838;2022-10-31T07:40:50;101414.06;;;13.73;69.07
29371;BME280;16357;52.188;7.838;2022-10-31T07:43:18;101410.56;;;13.81;69.18
29371;BME280;16357;52.188;7.838;2022-10-31T07:45:51;101413.31;;;13.89;68.88
29371;BME280;16357;52.188;7.838;2022-10-31T07:48:19;101413.53;;;13.96;69.03
29371;BME280;16357;52.188;7.838;2022-10-31T07:50:45;101410.00;;;14.03;69.42
29371;BME280;16357;52.188;7.838;2022-10-31T07:53:13;101415.44;;;14.12;69.45
29371;BME280;16357;52.188;7.838;2022-10-31T07:55:40;101413.75;;;14.19;69.40
29371;BME280;16357;52.188;7.838;2022-10-31T07:58:12;101417.34;;;14.27;69.34
29371;BME280;16357;52.188;7.838;2022-10-31T08:00:41;101416.34;;;14.37;69.37
29371;BME280;16357;52.188;7.838;2022-10-31T08:03:16;101408.25;;;14.45;69.17
29371;BME280;16357;52.188;7.838;2022-10-31T08:05:43;101404.78;;;14.53;69.60
29371;BME280;16357;52.188;7.838;2022-10-31T08:08:12;101414.59;;;14.62;69.43
29371;BME280;16357;52.188;7.838;2022-10-31T08:10:39;101417.31;;;14.70;69.34
29371;BME280;16357;52.188;7.838;2022-10-31T08:13:12;101410.88;;;14.79;69.44
29371;BME280;16357;52.188;7.838;2022-10-31T08:15:39;101406.34;;;14.88;70.04
29371;BME280;16357;52.188;7.838;2022-10-31T08:18:14;101402.47;;;14.99;69.62
29371;BME280;16357;52.188;7.838;2022-10-31T08:20:42;101398.03;;;15.06;70.14
29371;BME280;16357;52.188;7.838;2022-10-31T08:23:10;101396.03;;;15.16;69.80
29371;BME280;16357;52.188;7.838;2022-10-31T08:25:37;101396.88;;;15.25;70.02
29371;BME280;16357;52.188;7.838;2022-10-31T08:28:05;101393.13;;;15.34;70.34
29371;BME280;16357;52.188;7.838;2022-10-31T08:30:35;101386.50;;;15.45;69.98
29371;BME280;16357;52.188;7.838;2022-10-31T08:33:14;101384.66;;;15.53;70.33
29371;BME280;16357;52.188;7.838;2022-10-31T08:35:41;101389.84;;;15.63;70.29
29371;BME280;16357;52.188;7.838;2022-10-31T08:38:10;101388.84;;;15.72;69.86
29371;BME280;16357;52.188;7.838;2022-10-31T08:40:37;101388.81;;;15.80;70.49
29371;BME280;16357;52.188;7.838;2022-10-31T08:43:12;101388.59;;;15.90;70.24
29371;BME280;16357;52.188;7.838;2022-10-31T08:45:39;101381.28;;;15.99;70.24
29371;BME280;16357;52.188;7.838;2022-10-31T08:48:09;101381.06;;;16.09;70.17
29371;BME280;16357;52.188;7.838;2022-10-31T08:50:36;101379.19;;;16.17;70.19
29371;BME280;16357;52.188;7.838;2022-10-31T08:53:04;101376.22;;;16.27;70.38
29371;BME280;16357;52.188;7.838;2022-10-31T08:55:35;101375.16;;;16.36;70.09
29371;BME280;16357;52.188;7.838;2022-10-31T08:58:03;101375.13;;;16.44;70.07
29371;BME280;16357;52.188;7.838;2022-10-31T09:00:30;101367.75;;;16.53;70.06
29371;BME280;16357;52.188;7.838;2022-10-31T09:02:58;101368.75;;;16.60;69.73
29371;BME280;16357;52.188;7.838;2022-10-31T09:05:25;101366.16;;;16.67;69.70
29371;BME280;16357;52.188;7.838;2022-10-31T09:07:59;101364.22;;;16.76;69.39
29371;BME280;16357;52.188;7.838;2022-10-31T09:10:27;101366.22;;;16.82;69.11
29371;BME280;16357;52.188;7.838;2022-10-31T09:13:09;101368.03;;;16.89;69.12
29371;BME280;16357;52.188;7.838;2022-10-31T09:15:39;101369.00;;;16.97;69.73
29371;BME280;16357;52.188;7.838;2022-10-31T09:18:07;101367.41;;;17.02;69.57
29371;BME280;16357;52.188;7.838;2022-10-31T09:20:35;101355.47;;;17.11;69.42
29371;BME280;16357;52.188;7.838;2022-10-31T09:23:08;101353.31;;;17.22;69.12
29371;BME280;16357;52.188;7.838;2022-10-31T09:25:35;101348.84;;;17.29;68.99
29371;BME280;16357;52.188;7.838;2022-10-31T09:28:03;101351.28;;;17.39;68.97
29371;BME280;16357;52.188;7.838;2022-10-31T09:30:32;101343.91;;;17.47;68.71
29371;BME280;16357;52.188;7.838;2022-10-31T09:33:00;101352.59;;;17.58;68.54
29371;BME280;16357;52.188;7.838;2022-10-31T09:35:28;101350.00;;;17.64;68.56
29371;BME280;16357;52.188;7.838;2022-10-31T09:37:58;101358.03;;;17.72;68.12
29371;BME280;16357;52.188;7.838;2022-10-31T09:40:32;101348.59;;;17.83;67.95
29371;BME280;16357;52.188;7.838;2022-10-31T09:46:16;101353.41;;;18.03;67.64
29371;BME280;16357;52.188;7.838;2022-10-31T09:51:55;101347.56;;;18.20;67.33
29371;BME280;16357;52.188;7.838;2022-10-31T09:54:34;101342.03;;;18.29;67.05
29371;BME280;16357;52.188;7.838;2022-10-31T09:57:02;101348.16;;;18.37;67.22
29371;BME280;16357;52.188;7.838;2022-10-31T09:59:38;101349.53;;;18.48;66.84
29371;BME280;16357;52.188;7.838;2022-10-31T10:04:53;101343.91;;;18.71;66.37
29371;BME280;16357;52.188;7.838;2022-10-31T10:07:57;101342.78;;;18.80;65.96
29371;BME280;16357;52.188;7.838;2022-10-31T10:10:35;101337.84;;;18.91;65.70
29371;BME280;16357;52.188;7.838;2022-10-31T10:13:41;101335.59;;;19.01;65.15
29371;BME280;16357;52.188;7.838;2022-10-31T10:16:36;101340.50;;;19.12;64.85
29371;BME280;16357;52.188;7.838;2022-10-31T10:19:23;101337.63;;;19.20;64.46
29371;BME280;16357;52.188;7.838;2022-10-31T10:30:30;101333.41;;;19.46;63.35
29371;BME280;16357;52.188;7.838;2022-10-31T10:33:23;101332.16;;;19.48;63.17
29371;BME280;16357;52.188;7.838;2022-10-31T10:35:59;101323.38;;;19.53;63.01
29371;BME280;16357;52.188;7.838;2022-10-31T10:38:30;101326.75;;;19.55;62.87
29371;BME280;16357;52.188;7.838;2022-10-31T10:41:01;101315.44;;;19.58;62.99
29371;BME280;16357;52.188;7.838;2022-10-31T10:43:38;101311.06;;;19.64;62.96
29371;BME280;16357;52.188;7.838;2022-10-31T10:55:16;101317.28;;;19.86;61.86
29371;BME280;16357;52.188;7.838;2022-10-31T10:57:56;101306.63;;;19.91;61.70
29371;BME280;16357;52.188;7.838;2022-10-31T11:00:26;101301.41;;;19.96;61.39
29371;BME280;16357;52.188;7.838;2022-10-31T11:02:53;101297.44;;;19.99;60.84
29371;BME280;16357;52.188;7.838;2022-10-31T11:05:33;101301.84;;;20.06;60.73
29371;BME280;16357;52.188;7.838;2022-10-31T11:08:00;101299.56;;;20.10;60.34
29371;BME280;16357;52.188;7.838;2022-10-31T11:10:27;101299.97;;;20.13;60.32
29371;BME280;16357;52.188;7.838;2022-10-31T11:13:21;101296.22;;;20.21;60.54
29371;BME280;16357;52.188;7.838;2022-10-31T11:18:27;101278.44;;;20.32;59.87
29371;BME280;16357;52.188;7.838;2022-10-31T11:20:57;101270.47;;;20.37;59.42
29371;BME280;16357;52.188;7.838;2022-10-31T11:23:26;101263.34;;;20.43;59.25
29371;BME280;16357;52.188;7.838;2022-10-31T11:25:56;101259.16;;;20.47;58.75
29371;BME280;16357;52.188;7.838;2022-10-31T11:28:24;101248.66;;;20.50;58.46
29371;BME280;16357;52.188;7.838;2022-10-31T11:30:58;101250.59;;;20.56;58.54
29371;BME280;16357;52.188;7.838;2022-10-31T11:33:46;101238.22;;;20.60;58.07
29371;BME280;16357;52.188;7.838;2022-10-31T11:36:25;101218.72;;;20.64;58.00
29371;BME280;16357;52.188;7.838;2022-10-31T11:38:53;101223.97;;;20.65;57.64
29371;BME280;16357;52.188;7.838;2022-10-31T11:41:27;101222.69;;;20.68;57.75
29371;BME280;16357;52.188;7.838;2022-10-31T11:44:17;101219.34;;;20.72;57.50
29371;BME280;16357;52.188;7.838;2022-10-31T11:46:48;101203.59;;;20.74;57.23
29371;BME280;16357;52.188;7.838;2022-10-31T11:49:36;101202.97;;;20.79;56.86
29371;BME280;16357;52.188;7.838;2022-10-31T11:52:13;101205.06;;;20.83;56.32
29371;BME280;16357;52.188;7.838;2022-10-31T11:54:55;101206.09;;;20.89;56.02
29371;BME280;16357;52.188;7.838;2022-10-31T11:57:30;101194.53;;;20.94;56.07
29371;BME280;16357;52.188;7.838;2022-10-31T11:59:59;101189.88;;;21.01;56.22
29371;BME280;16357;52.188;7.838;2022-10-31T12:02:26;101189.69;;;21.09;55.54
29371;BME280;16357;52.188;7.838;2022-10-31T12:05:10;101187.31;;;21.19;55.39
29371;BME280;16357;52.188;7.838;2022-10-31T12:07:43;101180.56;;;21.29;54.84
29371;BME280;16357;52.188;7.838;2022-10-31T12:10:10;101172.13;;;21.37;54.97
29371;BME280;16357;52.188;7.838;2022-10-31T12:12:48;101157.44;;;21.44;54.56
29371;BME280;16357;52.188;7.838;2022-10-31T12:15:34;101146.44;;;21.51;54.26
29371;BME280;16357;52.188;7.838;2022-10-31T12:31:19;101119.94;;;21.65;54.00
29371;BME280;16357;52.188;7.838;2022-10-31T12:36:56;101088.38;;;21.69;53.59
29371;BME280;16357;52.188;7.838;2022-10-31T12:39:43;101082.31;;;21.67;53.16
29371;BME280;16357;52.188;7.838;2022-10-31T12:42:23;101079.59;;;21.67;53.46
29371;BME280;16357;52.188;7.838;2022-10-31T12:45:13;101076.25;;;21.65;53.73
29371;BME280;16357;52.188;7.838;2022-10-31T12:53:42;101072.69;;;21.64;53.79
29371;BME280;16357;52.188;7.838;2022-10-31T13:01:34;101070.31;;;21.68;53.64
29371;BME280;16357;52.188;7.838;2022-10-31T13:04:12;101072.41;;;21.73;53.58
29371;BME280;16357;52.188;7.838;2022-10-31T13:06:43;101073.00;;;21.75;53.49
29371;BME280;16357;52.188;7.838;2022-10-31T13:09:15;101064.59;;;21.76;52.92
29371;BME280;16357;52.188;7.838;2022-10-31T13:12:00;101067.94;;;21.78;52.88
29371;BME280;16357;52.188;7.838;2022-10-31T13:14:36;101070.06;;;21.76;53.14
29371;BME280;16357;52.188;7.838;2022-10-31T13:17:06;101076.59;;;21.75;53.06
29371;BME280;16357;52.188;7.838;2022-10-31T13:19:36;101068.97;;;21.77;53.38
29371;BME280;16357;52.188;7.838;2022-10-31T13:22:06;101051.75;;;21.77;52.85
29371;BME280;16357;52.188;7.838;2022-10-31T13:24:47;101043.56;;;21.77;53.14
29371;BME280;16357;52.188;7.838;2022-10-31T13:30:22;101024.69;;;21.75;53.15
29371;BME280;16357;52.188;7.838;2022-10-31T13:36:04;101014.63;;;21.69;53.38
29371;BME280;16357;52.188;7.838;2022-10-31T13:43:59;101000.47;;;21.54;53.20
29371;BME280;16357;52.188;7.838;2022-10-31T13:48:58;100992.81;;;21.44;53.79
29371;BME280;16357;52.188;7.838;2022-10-31T13:51:27;100996.81;;;21.41;54.15
29371;BME280;16357;52.188;7.838;2022-10-31T13:54:01;100989.66;;;21.40;54.46
29371;BME280;16357;52.188;7.838;2022-10-31T13:56:33;100974.38;;;21.39;54.32
29371;BME280;16357;52.188;7.838;2022-10-31T13:59:05;100970.97;;;21.37;54.55
29371;BME280;16357;52.188;7.838;2022-10-31T14:01:49;100974.78;;;21.36;54.50
29371;BME280;16357;52.188;7.838;2022-10-31T14:04:44;100965.97;;;21.34;54.52
29371;BME280;16357;52.188;7.838;2022-10-31T14:07:10;100961.59;;;21.33;54.53
29371;BME280;16357;52.188;7.838;2022-10-31T14:12:34;100953.00;;;21.30;54.86
29371;BME280;16357;52.188;7.838;2022-10-31T14:15:21;100951.72;;;21.32;55.29
29371;BME280;16357;52.188;7.838;2022-10-31T14:18:01;100945.41;;;21.32;54.82
29371;BME280;16357;52.188;7.838;2022-10-31T14:20:44;100943.13;;;21.29;54.99
29371;BME280;16357;52.188;7.838;2022-10-31T14:26:29;100936.69;;;21.23;55.09
29371;BME280;16357;52.188;7.838;2022-10-31T14:29:01;100924.53;;;21.19;54.93
29371;BME280;16357;52.188;7.838;2022-10-31T14:31:39;100915.50;;;21.18;55.14
29371;BME280;16357;52.188;7.838;2022-10-31T14:45:33;100922.31;;;21.09;55.17
29371;BME280;16357;52.188;7.838;2022-10-31T14:50:44;100920.00;;;21.06;55.22
29371;BME280;16357;52.188;7.838;2022-10-31T14:53:17;100912.06;;;21.04;55.29
29371;BME280;16357;52.188;7.838;2022-10-31T14:55:48;100904.91;;;21.03;55.48